sensor_id;sensor_type;location;lat;lon;timestamp;P1;durP1;ratioP1;P2;durP2;ratioP2
51758;SDS011;66684;47.568;18.734;2024-03-23T00:53:53;27.20;;;14.85;;
51758;SDS011;66684;47.568;18.734;2024-03-23T00:56:19;28.55;;;15.93;;
51758;SDS011;66684;47.568;18.734;2024-03-23T00:58:45;28.45;;;15.43;;
51758;SDS011;66684;47.568;18.734;2024-03-23T01:01:11;31.40;;;16.50;;
51758;SDS011;66684;47.568;18.734;2024-03-23T01:03:37;28.73;;;15.38;;
51758;SDS011;66684;47.568;18.734;2024-03-23T01:06:03;28.62;;;16.25;;
51758;SDS011;66684;47.568;18.734;2024-03-23T01:08:29;27.45;;;16.20;;
51758;SDS011;66684;47.568;18.734;2024-03-23T01:13:21;31.65;;;17.33;;
51758;SDS011;66684;47.568;18.734;2024-03-23T01:15:48;30.35;;;17.75;;
51758;SDS011;66684;47.568;18.734;2024-03-23T01:18:15;29.67;;;16.65;;
51758;SDS011;66684;47.568;18.734;2024-03-23T01:20:41;30.58;;;17.27;;
51758;SDS011;66684;47.568;18.734;2024-03-23T01:23:07;36.40;;;17.95;;
51758;SDS011;66684;47.568;18.734;2024-03-23T01:25:33;30.00;;;18.05;;
51758;SDS011;66684;47.568;18.734;2024-03-23T01:27:58;29.67;;;17.98;;
51758;SDS011;66684;47.568;18.734;2024-03-23T01:30:24;33.90;;;17.55;;
51758;SDS011;66684;47.568;18.734;2024-03-23T01:32:50;31.42;;;17.08;;
51758;SDS011;66684;47.568;18.734;2024-03-23T01:35:16;29.85;;;17.12;;
51758;SDS011;66684;47.568;18.734;2024-03-23T01:37:42;30.02;;;17.15;;
51758;SDS011;66684;47.568;18.734;2024-03-23T01:40:08;27.87;;;16.52;;
51758;SDS011;66684;47.568;18.734;2024-03-23T01:42:34;28.95;;;15.50;;
51758;SDS011;66684;47.568;18.734;2024-03-23T01:45:00;28.70;;;17.30;;
51758;SDS011;66684;47.568;18.734;2024-03-23T01:47:26;29.92;;;16.83;;
51758;SDS011;66684;47.568;18.734;2024-03-23T01:49:52;31.70;;;16.05;;
51758;SDS011;66684;47.568;18.734;2024-03-23T01:52:18;27.77;;;16.00;;
51758;SDS011;66684;47.568;18.734;2024-03-23T01:54:44;29.55;;;16.25;;
51758;SDS011;66684;47.568;18.734;2024-03-23T01:57:10;28.15;;;15.95;;
51758;SDS011;66684;47.568;18.734;2024-03-23T01:59:36;27.85;;;16.12;;
51758;SDS011;66684;47.568;18.734;2024-03-23T02:02:02;28.75;;;15.70;;
51758;SDS011;66684;47.568;18.734;2024-03-23T02:04:28;24.77;;;15.75;;
51758;SDS011;66684;47.568;18.734;2024-03-23T02:06:54;26.75;;;14.85;;
51758;SDS011;66684;47.568;18.734;2024-03-23T02:09:20;26.45;;;15.50;;
51758;SDS011;66684;47.568;18.734;2024-03-23T02:11:46;29.30;;;15.75;;
51758;SDS011;66684;47.568;18.734;2024-03-23T02:14:12;25.60;;;15.15;;
51758;SDS011;66684;47.568;18.734;2024-03-23T02:16:37;29.27;;;15.35;;
51758;SDS011;66684;47.568;18.734;2024-03-23T02:19:03;24.65;;;14.57;;
51758;SDS011;66684;47.568;18.734;2024-03-23T02:21:29;26.05;;;14.38;;
51758;SDS011;66684;47.568;18.734;2024-03-23T02:23:58;27.00;;;14.43;;
51758;SDS011;66684;47.568;18.734;2024-03-23T02:26:25;27.77;;;15.20;;
51758;SDS011;66684;47.568;18.734;2024-03-23T02:28:51;26.00;;;14.55;;
51758;SDS011;66684;47.568;18.734;2024-03-23T02:31:16;26.50;;;14.07;;
51758;SDS011;66684;47.568;18.734;2024-03-23T02:33:42;28.92;;;14.95;;
51758;SDS011;66684;47.568;18.734;2024-03-23T02:36:08;26.98;;;14.87;;
51758;SDS011;66684;47.568;18.734;2024-03-23T02:38:34;28.08;;;15.48;;
51758;SDS011;66684;47.568;18.734;2024-03-23T02:41:03;23.70;;;14.57;;
51758;SDS011;66684;47.568;18.734;2024-03-23T02:43:29;25.88;;;15.00;;
51758;SDS011;66684;47.568;18.734;2024-03-23T02:45:56;29.30;;;15.93;;
51758;SDS011;66684;47.568;18.734;2024-03-23T02:48:21;30.75;;;16.30;;
51758;SDS011;66684;47.568;18.734;2024-03-23T02:50:47;27.13;;;16.65;;
51758;SDS011;66684;47.568;18.734;2024-03-23T02:53:13;24.75;;;15.90;;
51758;SDS011;66684;47.568;18.734;2024-03-23T02:55:39;27.23;;;16.23;;
51758;SDS011;66684;47.568;18.734;2024-03-23T02:58:05;28.83;;;16.17;;
51758;SDS011;66684;47.568;18.734;2024-03-23T03:00:31;26.90;;;15.40;;
51758;SDS011;66684;47.568;18.734;2024-03-23T03:02:57;29.05;;;15.80;;
51758;SDS011;66684;47.568;18.734;2024-03-23T03:05:22;29.23;;;16.42;;
51758;SDS011;66684;47.568;18.734;2024-03-23T03:07:48;26.77;;;16.67;;
51758;SDS011;66684;47.568;18.734;2024-03-23T03:10:14;28.45;;;17.33;;
51758;SDS011;66684;47.568;18.734;2024-03-23T03:12:40;26.87;;;15.98;;
51758;SDS011;66684;47.568;18.734;2024-03-23T03:15:06;31.98;;;17.30;;
51758;SDS011;66684;47.568;18.734;2024-03-23T03:17:33;33.03;;;17.08;;
51758;SDS011;66684;47.568;18.734;2024-03-23T03:19:59;28.35;;;17.48;;
51758;SDS011;66684;47.568;18.734;2024-03-23T03:22:25;27.40;;;17.30;;
51758;SDS011;66684;47.568;18.734;2024-03-23T03:24:51;29.73;;;17.08;;
51758;SDS011;66684;47.568;18.734;2024-03-23T03:27:17;26.50;;;17.75;;
51758;SDS011;66684;47.568;18.734;2024-03-23T03:29:43;28.98;;;17.35;;
51758;SDS011;66684;47.568;18.734;2024-03-23T03:32:08;28.67;;;17.25;;
51758;SDS011;66684;47.568;18.734;2024-03-23T03:34:34;29.25;;;16.83;;
51758;SDS011;66684;47.568;18.734;2024-03-23T03:37:00;25.77;;;16.75;;
51758;SDS011;66684;47.568;18.734;2024-03-23T03:39:26;26.92;;;17.65;;
51758;SDS011;66684;47.568;18.734;2024-03-23T03:41:52;30.30;;;16.30;;
51758;SDS011;66684;47.568;18.734;2024-03-23T03:44:18;28.12;;;16.83;;
51758;SDS011;66684;47.568;18.734;2024-03-23T03:46:44;25.35;;;16.52;;
51758;SDS011;66684;47.568;18.734;2024-03-23T03:49:10;25.65;;;15.73;;
51758;SDS011;66684;47.568;18.734;2024-03-23T03:51:36;26.02;;;16.77;;
51758;SDS011;66684;47.568;18.734;2024-03-23T03:54:01;26.17;;;16.67;;
51758;SDS011;66684;47.568;18.734;2024-03-23T03:56:27;29.25;;;17.75;;
51758;SDS011;66684;47.568;18.734;2024-03-23T03:58:53;25.92;;;17.08;;
51758;SDS011;66684;47.568;18.734;2024-03-23T04:01:19;26.12;;;17.12;;
51758;SDS011;66684;47.568;18.734;2024-03-23T04:03:45;25.62;;;16.98;;
51758;SDS011;66684;47.568;18.734;2024-03-23T04:06:12;27.13;;;17.70;;
51758;SDS011;66684;47.568;18.734;2024-03-23T04:08:38;24.48;;;17.10;;
51758;SDS011;66684;47.568;18.734;2024-03-23T04:11:04;26.80;;;17.05;;
51758;SDS011;66684;47.568;18.734;2024-03-23T04:13:29;29.83;;;17.27;;
51758;SDS011;66684;47.568;18.734;2024-03-23T04:15:55;25.83;;;17.77;;
51758;SDS011;66684;47.568;18.734;2024-03-23T04:18:22;25.85;;;16.33;;
51758;SDS011;66684;47.568;18.734;2024-03-23T04:20:48;27.58;;;17.48;;
51758;SDS011;66684;47.568;18.734;2024-03-23T04:23:14;28.12;;;17.52;;
51758;SDS011;66684;47.568;18.734;2024-03-23T04:25:40;31.25;;;18.00;;
51758;SDS011;66684;47.568;18.734;2024-03-23T04:28:06;28.08;;;17.00;;
51758;SDS011;66684;47.568;18.734;2024-03-23T04:30:32;27.15;;;18.08;;
51758;SDS011;66684;47.568;18.734;2024-03-23T04:32:58;28.62;;;18.33;;
51758;SDS011;66684;47.568;18.734;2024-03-23T04:35:24;31.50;;;18.10;;
51758;SDS011;66684;47.568;18.734;2024-03-23T04:37:53;28.20;;;16.98;;
51758;SDS011;66684;47.568;18.734;2024-03-23T04:40:21;27.85;;;17.67;;
51758;SDS011;66684;47.568;18.734;2024-03-23T04:42:47;25.37;;;16.42;;
51758;SDS011;66684;47.568;18.734;2024-03-23T04:45:13;27.65;;;17.62;;
51758;SDS011;66684;47.568;18.734;2024-03-23T04:47:38;28.62;;;18.17;;
51758;SDS011;66684;47.568;18.734;2024-03-23T04:50:04;24.25;;;16.55;;
51758;SDS011;66684;47.568;18.734;2024-03-23T04:52:30;27.48;;;17.87;;
51758;SDS011;66684;47.568;18.734;2024-03-23T04:54:56;26.55;;;17.20;;
51758;SDS011;66684;47.568;18.734;2024-03-23T04:57:23;28.95;;;17.62;;
51758;SDS011;66684;47.568;18.734;2024-03-23T04:59:49;25.23;;;16.67;;
51758;SDS011;66684;47.568;18.734;2024-03-23T05:02:15;25.83;;;16.30;;
51758;SDS011;66684;47.568;18.734;2024-03-23T05:04:41;27.27;;;16.80;;
51758;SDS011;66684;47.568;18.734;2024-03-23T05:07:07;27.40;;;17.58;;
51758;SDS011;66684;47.568;18.734;2024-03-23T05:09:32;27.90;;;17.05;;
51758;SDS011;66684;47.568;18.734;2024-03-23T05:12:01;26.37;;;16.37;;
51758;SDS011;66684;47.568;18.734;2024-03-23T05:14:28;25.30;;;16.02;;
51758;SDS011;66684;47.568;18.734;2024-03-23T05:16:54;28.48;;;17.27;;
51758;SDS011;66684;47.568;18.734;2024-03-23T05:19:20;26.48;;;16.02;;
51758;SDS011;66684;47.568;18.734;2024-03-23T05:21:46;24.45;;;15.68;;
51758;SDS011;66684;47.568;18.734;2024-03-23T05:24:12;27.15;;;16.12;;
51758;SDS011;66684;47.568;18.734;2024-03-23T05:26:38;23.08;;;16.05;;
51758;SDS011;66684;47.568;18.734;2024-03-23T05:29:04;23.50;;;16.33;;
51758;SDS011;66684;47.568;18.734;2024-03-23T05:31:31;26.20;;;15.98;;
51758;SDS011;66684;47.568;18.734;2024-03-23T05:33:57;26.27;;;15.95;;
51758;SDS011;66684;47.568;18.734;2024-03-23T05:36:23;23.30;;;15.30;;
51758;SDS011;66684;47.568;18.734;2024-03-23T05:38:50;24.00;;;15.45;;
51758;SDS011;66684;47.568;18.734;2024-03-23T05:41:16;26.40;;;16.15;;
51758;SDS011;66684;47.568;18.734;2024-03-23T05:43:42;28.70;;;16.23;;
51758;SDS011;66684;47.568;18.734;2024-03-23T05:46:08;27.50;;;17.40;;
51758;SDS011;66684;47.568;18.734;2024-03-23T05:48:34;25.27;;;16.92;;
51758;SDS011;66684;47.568;18.734;2024-03-23T05:51:00;26.70;;;16.37;;
51758;SDS011;66684;47.568;18.734;2024-03-23T05:53:26;23.67;;;16.75;;
51758;SDS011;66684;47.568;18.734;2024-03-23T05:56:00;23.25;;;17.02;;
51758;SDS011;66684;47.568;18.734;2024-03-23T05:58:29;24.10;;;16.10;;
51758;SDS011;66684;47.568;18.734;2024-03-23T06:00:58;26.62;;;17.83;;
51758;SDS011;66684;47.568;18.734;2024-03-23T06:03:25;24.85;;;17.35;;
51758;SDS011;66684;47.568;18.734;2024-03-23T06:05:51;47.33;;;30.58;;
51758;SDS011;66684;47.568;18.734;2024-03-23T06:08:18;42.97;;;28.77;;
51758;SDS011;66684;47.568;18.734;2024-03-23T06:10:45;29.08;;;18.90;;
51758;SDS011;66684;47.568;18.734;2024-03-23T06:13:12;28.48;;;18.65;;
51758;SDS011;66684;47.568;18.734;2024-03-23T06:15:38;28.45;;;16.52;;
51758;SDS011;66684;47.568;18.734;2024-03-23T06:18:04;24.48;;;15.65;;
51758;SDS011;66684;47.568;18.734;2024-03-23T06:20:31;27.45;;;16.52;;
51758;SDS011;66684;47.568;18.734;2024-03-23T06:22:57;27.55;;;17.30;;
51758;SDS011;66684;47.568;18.734;2024-03-23T06:25:23;31.12;;;19.80;;
51758;SDS011;66684;47.568;18.734;2024-03-23T06:27:49;28.60;;;18.77;;
51758;SDS011;66684;47.568;18.734;2024-03-23T06:30:15;27.10;;;18.60;;
51758;SDS011;66684;47.568;18.734;2024-03-23T06:32:41;28.27;;;18.17;;
51758;SDS011;66684;47.568;18.734;2024-03-23T06:35:07;28.25;;;18.62;;
51758;SDS011;66684;47.568;18.734;2024-03-23T06:37:36;29.45;;;17.48;;
51758;SDS011;66684;47.568;18.734;2024-03-23T06:40:02;24.83;;;17.20;;
51758;SDS011;66684;47.568;18.734;2024-03-23T06:42:30;29.75;;;17.83;;
51758;SDS011;66684;47.568;18.734;2024-03-23T06:44:56;35.05;;;20.17;;
51758;SDS011;66684;47.568;18.734;2024-03-23T06:47:22;27.35;;;18.67;;
51758;SDS011;66684;47.568;18.734;2024-03-23T06:49:47;26.67;;;15.70;;
51758;SDS011;66684;47.568;18.734;2024-03-23T06:52:13;25.92;;;16.10;;
51758;SDS011;66684;47.568;18.734;2024-03-23T06:54:39;24.60;;;16.75;;
51758;SDS011;66684;47.568;18.734;2024-03-23T06:57:05;25.75;;;15.60;;
51758;SDS011;66684;47.568;18.734;2024-03-23T06:59:31;27.15;;;17.23;;
51758;SDS011;66684;47.568;18.734;2024-03-23T07:01:57;24.75;;;16.65;;
51758;SDS011;66684;47.568;18.734;2024-03-23T07:04:22;53.30;;;32.47;;
51758;SDS011;66684;47.568;18.734;2024-03-23T07:06:48;32.38;;;20.83;;
51758;SDS011;66684;47.568;18.734;2024-03-23T07:09:14;28.75;;;19.98;;
51758;SDS011;66684;47.568;18.734;2024-03-23T07:11:40;94.72;;;57.60;;
51758;SDS011;66684;47.568;18.734;2024-03-23T07:14:06;45.42;;;30.48;;
51758;SDS011;66684;47.568;18.734;2024-03-23T07:16:32;34.38;;;21.75;;
51758;SDS011;66684;47.568;18.734;2024-03-23T07:18:58;24.30;;;16.20;;
51758;SDS011;66684;47.568;18.734;2024-03-23T07:21:24;24.23;;;15.95;;
51758;SDS011;66684;47.568;18.734;2024-03-23T07:23:50;25.10;;;16.37;;
51758;SDS011;66684;47.568;18.734;2024-03-23T07:26:16;21.62;;;15.40;;
51758;SDS011;66684;47.568;18.734;2024-03-23T07:28:43;22.08;;;15.65;;
51758;SDS011;66684;47.568;18.734;2024-03-23T07:31:11;22.58;;;15.50;;
51758;SDS011;66684;47.568;18.734;2024-03-23T07:33:42;24.30;;;16.30;;
51758;SDS011;66684;47.568;18.734;2024-03-23T07:36:13;22.98;;;16.77;;
51758;SDS011;66684;47.568;18.734;2024-03-23T07:38:42;23.60;;;16.37;;
51758;SDS011;66684;47.568;18.734;2024-03-23T07:41:13;22.98;;;17.25;;
51758;SDS011;66684;47.568;18.734;2024-03-23T07:43:43;24.12;;;16.15;;
51758;SDS011;66684;47.568;18.734;2024-03-23T07:46:09;25.15;;;16.23;;
51758;SDS011;66684;47.568;18.734;2024-03-23T07:48:35;24.15;;;16.20;;
51758;SDS011;66684;47.568;18.734;2024-03-23T07:51:05;23.33;;;17.12;;
51758;SDS011;66684;47.568;18.734;2024-03-23T07:53:33;27.45;;;16.73;;
51758;SDS011;66684;47.568;18.734;2024-03-23T07:56:05;23.27;;;16.25;;
51758;SDS011;66684;47.568;18.734;2024-03-23T07:58:32;28.38;;;18.33;;
51758;SDS011;66684;47.568;18.734;2024-03-23T08:01:05;27.85;;;17.98;;
51758;SDS011;66684;47.568;18.734;2024-03-23T08:03:31;27.80;;;18.15;;
51758;SDS011;66684;47.568;18.734;2024-03-23T08:05:57;24.65;;;18.25;;
51758;SDS011;66684;47.568;18.734;2024-03-23T08:08:22;25.62;;;17.83;;
51758;SDS011;66684;47.568;18.734;2024-03-23T08:10:49;25.67;;;19.80;;
51758;SDS011;66684;47.568;18.734;2024-03-23T08:13:16;25.45;;;19.58;;
51758;SDS011;66684;47.568;18.734;2024-03-23T08:15:42;30.80;;;19.77;;
51758;SDS011;66684;47.568;18.734;2024-03-23T08:18:09;26.35;;;19.08;;
51758;SDS011;66684;47.568;18.734;2024-03-23T08:20:35;25.15;;;18.48;;
51758;SDS011;66684;47.568;18.734;2024-03-23T08:23:01;31.33;;;18.77;;
51758;SDS011;66684;47.568;18.734;2024-03-23T08:25:30;24.90;;;19.62;;
51758;SDS011;66684;47.568;18.734;2024-03-23T08:27:56;24.98;;;17.87;;
51758;SDS011;66684;47.568;18.734;2024-03-23T08:30:22;25.05;;;18.87;;
51758;SDS011;66684;47.568;18.734;2024-03-23T08:32:48;23.98;;;18.12;;
51758;SDS011;66684;47.568;18.734;2024-03-23T08:35:14;27.17;;;18.73;;
51758;SDS011;66684;47.568;18.734;2024-03-23T08:37:40;23.40;;;17.98;;
51758;SDS011;66684;47.568;18.734;2024-03-23T08:40:06;27.02;;;18.67;;
51758;SDS011;66684;47.568;18.734;2024-03-23T08:42:34;21.98;;;16.10;;
51758;SDS011;66684;47.568;18.734;2024-03-23T08:45:00;22.20;;;17.15;;
51758;SDS011;66684;47.568;18.734;2024-03-23T08:47:26;19.87;;;15.40;;
51758;SDS011;66684;47.568;18.734;2024-03-23T08:49:52;19.40;;;12.70;;
51758;SDS011;66684;47.568;18.734;2024-03-23T08:52:18;17.35;;;13.13;;
51758;SDS011;66684;47.568;18.734;2024-03-23T08:54:44;15.65;;;11.93;;
51758;SDS011;66684;47.568;18.734;2024-03-23T08:57:10;16.37;;;12.63;;
51758;SDS011;66684;47.568;18.734;2024-03-23T08:59:37;15.68;;;13.02;;
51758;SDS011;66684;47.568;18.734;2024-03-23T09:02:03;19.40;;;14.07;;
51758;SDS011;66684;47.568;18.734;2024-03-23T09:04:30;16.35;;;12.45;;
51758;SDS011;66684;47.568;18.734;2024-03-23T09:06:56;17.85;;;13.62;;
51758;SDS011;66684;47.568;18.734;2024-03-23T09:09:24;19.05;;;12.93;;
51758;SDS011;66684;47.568;18.734;2024-03-23T09:11:50;17.40;;;13.25;;
51758;SDS011;66684;47.568;18.734;2024-03-23T09:14:16;15.00;;;11.77;;
51758;SDS011;66684;47.568;18.734;2024-03-23T09:16:42;13.60;;;10.07;;
51758;SDS011;66684;47.568;18.734;2024-03-23T09:19:07;16.08;;;9.15;;
51758;SDS011;66684;47.568;18.734;2024-03-23T09:21:33;15.82;;;9.52;;
51758;SDS011;66684;47.568;18.734;2024-03-23T09:23:59;14.65;;;9.52;;
51758;SDS011;66684;47.568;18.734;2024-03-23T09:26:25;14.93;;;9.18;;
51758;SDS011;66684;47.568;18.734;2024-03-23T09:28:51;12.90;;;9.32;;
51758;SDS011;66684;47.568;18.734;2024-03-23T09:31:17;14.60;;;10.20;;
51758;SDS011;66684;47.568;18.734;2024-03-23T09:33:43;18.20;;;9.65;;
51758;SDS011;66684;47.568;18.734;2024-03-23T09:36:09;14.02;;;10.10;;
51758;SDS011;66684;47.568;18.734;2024-03-23T09:38:35;14.68;;;10.93;;
51758;SDS011;66684;47.568;18.734;2024-03-23T09:41:06;16.98;;;10.50;;
51758;SDS011;66684;47.568;18.734;2024-03-23T09:43:33;15.18;;;10.10;;
51758;SDS011;66684;47.568;18.734;2024-03-23T09:45:59;14.65;;;10.65;;
51758;SDS011;66684;47.568;18.734;2024-03-23T09:48:26;15.88;;;11.15;;
51758;SDS011;66684;47.568;18.734;2024-03-23T09:50:52;15.20;;;10.75;;
51758;SDS011;66684;47.568;18.734;2024-03-23T09:53:18;14.63;;;9.65;;
51758;SDS011;66684;47.568;18.734;2024-03-23T09:55:44;16.48;;;9.43;;
51758;SDS011;66684;47.568;18.734;2024-03-23T09:58:14;14.18;;;9.75;;
51758;SDS011;66684;47.568;18.734;2024-03-23T10:00:44;12.15;;;9.27;;
51758;SDS011;66684;47.568;18.734;2024-03-23T10:03:10;16.60;;;9.75;;
51758;SDS011;66684;47.568;18.734;2024-03-23T10:05:36;13.05;;;9.38;;
51758;SDS011;66684;47.568;18.734;2024-03-23T10:10:41;12.95;;;9.15;;
51758;SDS011;66684;47.568;18.734;2024-03-23T10:13:07;12.37;;;9.60;;
51758;SDS011;66684;47.568;18.734;2024-03-23T10:15:34;19.52;;;10.15;;
51758;SDS011;66684;47.568;18.734;2024-03-23T10:18:19;13.77;;;9.32;;
51758;SDS011;66684;47.568;18.734;2024-03-23T10:20:47;13.68;;;10.32;;
51758;SDS011;66684;47.568;18.734;2024-03-23T10:23:17;12.82;;;9.48;;
51758;SDS011;66684;47.568;18.734;2024-03-23T10:25:43;14.82;;;8.93;;
51758;SDS011;66684;47.568;18.734;2024-03-23T10:28:09;13.10;;;9.48;;
51758;SDS011;66684;47.568;18.734;2024-03-23T10:30:37;12.50;;;9.10;;
51758;SDS011;66684;47.568;18.734;2024-03-23T10:33:09;16.55;;;8.85;;
51758;SDS011;66684;47.568;18.734;2024-03-23T10:35:38;10.48;;;7.72;;
51758;SDS011;66684;47.568;18.734;2024-03-23T10:38:05;14.80;;;8.15;;
51758;SDS011;66684;47.568;18.734;2024-03-23T10:40:36;11.60;;;6.30;;
51758;SDS011;66684;47.568;18.734;2024-03-23T10:43:03;13.00;;;6.10;;
51758;SDS011;66684;47.568;18.734;2024-03-23T10:45:30;11.95;;;6.45;;
51758;SDS011;66684;47.568;18.734;2024-03-23T10:47:56;10.93;;;5.80;;
51758;SDS011;66684;47.568;18.734;2024-03-23T10:50:22;17.60;;;6.57;;
51758;SDS011;66684;47.568;18.734;2024-03-23T10:52:49;11.52;;;5.32;;
51758;SDS011;66684;47.568;18.734;2024-03-23T10:55:15;19.15;;;6.05;;
51758;SDS011;66684;47.568;18.734;2024-03-23T10:57:50;14.18;;;5.75;;
51758;SDS011;66684;47.568;18.734;2024-03-23T11:00:19;9.50;;;5.68;;
51758;SDS011;66684;47.568;18.734;2024-03-23T11:02:50;11.80;;;5.60;;
51758;SDS011;66684;47.568;18.734;2024-03-23T11:05:37;17.92;;;6.22;;
51758;SDS011;66684;47.568;18.734;2024-03-23T11:08:02;10.10;;;5.60;;
51758;SDS011;66684;47.568;18.734;2024-03-23T11:10:29;12.43;;;4.82;;
51758;SDS011;66684;47.568;18.734;2024-03-23T11:12:56;9.10;;;4.70;;
51758;SDS011;66684;47.568;18.734;2024-03-23T11:15:23;9.43;;;4.97;;
51758;SDS011;66684;47.568;18.734;2024-03-23T11:18:05;8.55;;;4.78;;
51758;SDS011;66684;47.568;18.734;2024-03-23T11:20:36;13.32;;;5.80;;
51758;SDS011;66684;47.568;18.734;2024-03-23T11:23:02;9.30;;;4.97;;
51758;SDS011;66684;47.568;18.734;2024-03-23T11:25:28;8.82;;;5.35;;
51758;SDS011;66684;47.568;18.734;2024-03-23T11:27:55;9.52;;;4.82;;
51758;SDS011;66684;47.568;18.734;2024-03-23T11:32:56;10.25;;;5.32;;
51758;SDS011;66684;47.568;18.734;2024-03-23T11:38:05;8.30;;;5.00;;
51758;SDS011;66684;47.568;18.734;2024-03-23T11:40:38;10.75;;;4.95;;
51758;SDS011;66684;47.568;18.734;2024-03-23T11:43:09;11.02;;;4.87;;
51758;SDS011;66684;47.568;18.734;2024-03-23T11:45:48;9.13;;;4.57;;
51758;SDS011;66684;47.568;18.734;2024-03-23T11:48:23;10.27;;;4.53;;
51758;SDS011;66684;47.568;18.734;2024-03-23T11:50:50;7.03;;;4.90;;
51758;SDS011;66684;47.568;18.734;2024-03-23T11:55:49;8.25;;;4.55;;
51758;SDS011;66684;47.568;18.734;2024-03-23T11:58:25;9.77;;;5.22;;
51758;SDS011;66684;47.568;18.734;2024-03-23T12:00:56;8.68;;;4.57;;
51758;SDS011;66684;47.568;18.734;2024-03-23T12:03:26;8.68;;;4.78;;
51758;SDS011;66684;47.568;18.734;2024-03-23T12:05:54;11.57;;;4.85;;
51758;SDS011;66684;47.568;18.734;2024-03-23T12:08:28;10.25;;;4.57;;
51758;SDS011;66684;47.568;18.734;2024-03-23T12:11:11;7.60;;;4.05;;
51758;SDS011;66684;47.568;18.734;2024-03-23T12:13:40;7.95;;;4.37;;
51758;SDS011;66684;47.568;18.734;2024-03-23T12:16:09;10.23;;;4.68;;
51758;SDS011;66684;47.568;18.734;2024-03-23T12:18:39;8.70;;;4.30;;
51758;SDS011;66684;47.568;18.734;2024-03-23T12:21:07;9.82;;;4.40;;
51758;SDS011;66684;47.568;18.734;2024-03-23T12:23:34;10.27;;;4.03;;
51758;SDS011;66684;47.568;18.734;2024-03-23T12:26:00;7.32;;;3.95;;
51758;SDS011;66684;47.568;18.734;2024-03-23T12:28:27;9.32;;;4.32;;
51758;SDS011;66684;47.568;18.734;2024-03-23T12:30:53;6.65;;;3.67;;
51758;SDS011;66684;47.568;18.734;2024-03-23T12:33:20;6.55;;;3.78;;
51758;SDS011;66684;47.568;18.734;2024-03-23T12:35:50;10.70;;;5.05;;
51758;SDS011;66684;47.568;18.734;2024-03-23T12:38:16;11.43;;;4.62;;
51758;SDS011;66684;47.568;18.734;2024-03-23T12:40:46;7.50;;;4.32;;
51758;SDS011;66684;47.568;18.734;2024-03-23T12:43:15;8.90;;;3.92;;
51758;SDS011;66684;47.568;18.734;2024-03-23T12:45:46;8.18;;;4.07;;
51758;SDS011;66684;47.568;18.734;2024-03-23T12:48:15;8.38;;;3.62;;
51758;SDS011;66684;47.568;18.734;2024-03-23T12:50:41;10.88;;;4.12;;
51758;SDS011;66684;47.568;18.734;2024-03-23T12:53:07;5.87;;;3.30;;
51758;SDS011;66684;47.568;18.734;2024-03-23T12:55:36;25.58;;;5.55;;
51758;SDS011;66684;47.568;18.734;2024-03-23T12:58:02;5.37;;;3.50;;
51758;SDS011;66684;47.568;18.734;2024-03-23T13:00:28;7.53;;;3.78;;
51758;SDS011;66684;47.568;18.734;2024-03-23T13:02:54;5.55;;;3.30;;
51758;SDS011;66684;47.568;18.734;2024-03-23T13:05:20;7.60;;;3.67;;
51758;SDS011;66684;47.568;18.734;2024-03-23T13:07:46;5.65;;;3.10;;
51758;SDS011;66684;47.568;18.734;2024-03-23T13:10:12;8.02;;;4.00;;
51758;SDS011;66684;47.568;18.734;2024-03-23T13:12:38;6.57;;;3.50;;
51758;SDS011;66684;47.568;18.734;2024-03-23T13:15:05;6.12;;;3.55;;
51758;SDS011;66684;47.568;18.734;2024-03-23T13:17:31;9.90;;;3.55;;
51758;SDS011;66684;47.568;18.734;2024-03-23T13:19:57;5.07;;;2.67;;
51758;SDS011;66684;47.568;18.734;2024-03-23T13:22:22;9.82;;;3.40;;
51758;SDS011;66684;47.568;18.734;2024-03-23T13:24:48;9.38;;;3.83;;
51758;SDS011;66684;47.568;18.734;2024-03-23T13:27:14;7.57;;;3.53;;
51758;SDS011;66684;47.568;18.734;2024-03-23T13:29:40;6.75;;;3.50;;
51758;SDS011;66684;47.568;18.734;2024-03-23T13:32:08;6.43;;;3.65;;
51758;SDS011;66684;47.568;18.734;2024-03-23T13:34:34;6.28;;;3.20;;
51758;SDS011;66684;47.568;18.734;2024-03-23T13:37:00;7.53;;;3.45;;
51758;SDS011;66684;47.568;18.734;2024-03-23T13:39:27;7.93;;;3.58;;
51758;SDS011;66684;47.568;18.734;2024-03-23T13:41:53;6.93;;;3.50;;
51758;SDS011;66684;47.568;18.734;2024-03-23T13:44:22;8.07;;;4.03;;
51758;SDS011;66684;47.568;18.734;2024-03-23T13:46:48;5.85;;;3.53;;
51758;SDS011;66684;47.568;18.734;2024-03-23T13:49:24;9.43;;;4.15;;
51758;SDS011;66684;47.568;18.734;2024-03-23T13:51:57;8.38;;;4.22;;
51758;SDS011;66684;47.568;18.734;2024-03-23T13:54:25;6.90;;;3.72;;
51758;SDS011;66684;47.568;18.734;2024-03-23T13:56:52;6.78;;;3.62;;
51758;SDS011;66684;47.568;18.734;2024-03-23T13:59:18;12.85;;;3.83;;
51758;SDS011;66684;47.568;18.734;2024-03-23T14:01:44;10.45;;;3.70;;
51758;SDS011;66684;47.568;18.734;2024-03-23T14:04:13;9.50;;;4.65;;
51758;SDS011;66684;47.568;18.734;2024-03-23T14:06:42;8.95;;;4.20;;
51758;SDS011;66684;47.568;18.734;2024-03-23T14:09:10;74.90;;;9.20;;
51758;SDS011;66684;47.568;18.734;2024-03-23T14:11:37;6.12;;;3.55;;
51758;SDS011;66684;47.568;18.734;2024-03-23T14:14:03;8.35;;;3.65;;
51758;SDS011;66684;47.568;18.734;2024-03-23T14:16:32;7.07;;;2.97;;
51758;SDS011;66684;47.568;18.734;2024-03-23T14:18:58;6.55;;;3.47;;
51758;SDS011;66684;47.568;18.734;2024-03-23T14:21:25;9.68;;;4.43;;
51758;SDS011;66684;47.568;18.734;2024-03-23T14:23:51;10.48;;;4.90;;
51758;SDS011;66684;47.568;18.734;2024-03-23T14:26:17;34.35;;;5.72;;
51758;SDS011;66684;47.568;18.734;2024-03-23T14:28:43;10.50;;;4.82;;
51758;SDS011;66684;47.568;18.734;2024-03-23T14:31:09;19.12;;;4.47;;
51758;SDS011;66684;47.568;18.734;2024-03-23T14:33:37;12.68;;;3.50;;
51758;SDS011;66684;47.568;18.734;2024-03-23T14:36:07;7.45;;;3.53;;
51758;SDS011;66684;47.568;18.734;2024-03-23T14:38:33;12.18;;;7.12;;
51758;SDS011;66684;47.568;18.734;2024-03-23T14:41:00;6.00;;;3.55;;
51758;SDS011;66684;47.568;18.734;2024-03-23T14:43:27;6.80;;;4.00;;
51758;SDS011;66684;47.568;18.734;2024-03-23T14:48:40;5.72;;;3.08;;
51758;SDS011;66684;47.568;18.734;2024-03-23T14:51:07;8.55;;;4.10;;
51758;SDS011;66684;47.568;18.734;2024-03-23T14:53:36;8.23;;;3.37;;
51758;SDS011;66684;47.568;18.734;2024-03-23T14:56:05;6.07;;;3.53;;
51758;SDS011;66684;47.568;18.734;2024-03-23T14:58:32;6.00;;;3.85;;
51758;SDS011;66684;47.568;18.734;2024-03-23T15:01:04;5.90;;;3.40;;
51758;SDS011;66684;47.568;18.734;2024-03-23T15:03:31;5.32;;;3.12;;
51758;SDS011;66684;47.568;18.734;2024-03-23T15:05:58;5.37;;;3.12;;
51758;SDS011;66684;47.568;18.734;2024-03-23T15:08:25;6.37;;;3.50;;
51758;SDS011;66684;47.568;18.734;2024-03-23T15:10:51;6.70;;;2.33;;
51758;SDS011;66684;47.568;18.734;2024-03-23T15:13:17;7.43;;;2.83;;
51758;SDS011;66684;47.568;18.734;2024-03-23T15:15:43;5.78;;;3.05;;
51758;SDS011;66684;47.568;18.734;2024-03-23T15:18:11;7.35;;;3.10;;
51758;SDS011;66684;47.568;18.734;2024-03-23T15:20:38;8.18;;;2.97;;
51758;SDS011;66684;47.568;18.734;2024-03-23T15:23:04;5.78;;;3.22;;